sensor_id;sensor_type;location;lat;lon;timestamp;P1;durP1;ratioP1;P2;durP2;ratioP2
54328;SDS011;40710;51.120;13.136;2024-02-04T00:01:31;1.99;;;1.99;;
54328;SDS011;40710;51.120;13.136;2024-02-04T00:03:56;1.83;;;1.83;;
54328;SDS011;40710;51.120;13.136;2024-02-04T00:06:20;2.02;;;2.02;;
54328;SDS011;40710;51.120;13.136;2024-02-04T00:08:45;1.93;;;1.93;;
54328;SDS011;40710;51.120;13.136;2024-02-04T00:11:09;2.20;;;2.20;;
54328;SDS011;40710;51.120;13.136;2024-02-04T00:13:36;2.30;;;2.30;;
54328;SDS011;40710;51.120;13.136;2024-02-04T00:16:00;2.36;;;2.36;;
54328;SDS011;40710;51.120;13.136;2024-02-04T00:18:25;2.39;;;2.39;;
54328;SDS011;40710;51.120;13.136;2024-02-04T00:20:50;2.31;;;2.31;;
54328;SDS011;40710;51.120;13.136;2024-02-04T00:23:14;2.32;;;2.32;;
54328;SDS011;40710;51.120;13.136;2024-02-04T00:25:39;2.34;;;2.34;;
54328;SDS011;40710;51.120;13.136;2024-02-04T00:28:05;2.41;;;2.41;;
54328;SDS011;40710;51.120;13.136;2024-02-04T00:30:30;2.34;;;2.34;;
54328;SDS011;40710;51.120;13.136;2024-02-04T00:32:54;2.09;;;2.09;;
54328;SDS011;40710;51.120;13.136;2024-02-04T00:35:19;1.95;;;1.95;;
54328;SDS011;40710;51.120;13.136;2024-02-04T00:37:43;2.16;;;2.16;;
54328;SDS011;40710;51.120;13.136;2024-02-04T00:40:08;1.96;;;1.96;;
54328;SDS011;40710;51.120;13.136;2024-02-04T00:42:33;2.21;;;2.21;;
54328;SDS011;40710;51.120;13.136;2024-02-04T00:44:58;2.37;;;2.37;;
54328;SDS011;40710;51.120;13.136;2024-02-04T00:47:22;2.00;;;2.00;;
54328;SDS011;40710;51.120;13.136;2024-02-04T00:49:47;1.97;;;1.97;;
54328;SDS011;40710;51.120;13.136;2024-02-04T00:52:11;1.98;;;1.98;;
54328;SDS011;40710;51.120;13.136;2024-02-04T00:54:36;1.67;;;1.67;;
54328;SDS011;40710;51.120;13.136;2024-02-04T00:57:00;1.73;;;1.73;;
54328;SDS011;40710;51.120;13.136;2024-02-04T00:59:25;1.64;;;1.64;;
54328;SDS011;40710;51.120;13.136;2024-02-04T01:01:49;1.66;;;1.66;;
54328;SDS011;40710;51.120;13.136;2024-02-04T01:04:14;1.61;;;1.61;;
54328;SDS011;40710;51.120;13.136;2024-02-04T01:06:39;1.77;;;1.77;;
54328;SDS011;40710;51.120;13.136;2024-02-04T01:09:04;1.70;;;1.70;;
54328;SDS011;40710;51.120;13.136;2024-02-04T01:11:28;1.56;;;1.56;;
54328;SDS011;40710;51.120;13.136;2024-02-04T01:13:53;1.50;;;1.50;;
54328;SDS011;40710;51.120;13.136;2024-02-04T01:16:18;1.42;;;1.42;;
54328;SDS011;40710;51.120;13.136;2024-02-04T01:18:42;1.35;;;1.35;;
54328;SDS011;40710;51.120;13.136;2024-02-04T01:21:07;1.23;;;1.23;;
54328;SDS011;40710;51.120;13.136;2024-02-04T01:23:33;1.52;;;1.52;;
54328;SDS011;40710;51.120;13.136;2024-02-04T01:25:57;1.73;;;1.73;;
54328;SDS011;40710;51.120;13.136;2024-02-04T01:28:22;1.93;;;1.93;;
54328;SDS011;40710;51.120;13.136;2024-02-04T01:30:46;2.07;;;2.07;;
54328;SDS011;40710;51.120;13.136;2024-02-04T01:33:11;2.38;;;2.38;;
54328;SDS011;40710;51.120;13.136;2024-02-04T01:35:36;2.73;;;2.73;;
54328;SDS011;40710;51.120;13.136;2024-02-04T01:38:00;2.98;;;2.98;;
54328;SDS011;40710;51.120;13.136;2024-02-04T01:40:25;3.09;;;3.09;;
54328;SDS011;40710;51.120;13.136;2024-02-04T01:42:50;3.27;;;3.27;;
54328;SDS011;40710;51.120;13.136;2024-02-04T01:45:14;3.37;;;3.37;;
54328;SDS011;40710;51.120;13.136;2024-02-04T01:47:39;3.57;;;3.57;;
54328;SDS011;40710;51.120;13.136;2024-02-04T01:50:04;3.64;;;3.64;;
54328;SDS011;40710;51.120;13.136;2024-02-04T01:52:30;3.85;;;3.85;;
54328;SDS011;40710;51.120;13.136;2024-02-04T01:55:00;3.63;;;3.63;;
54328;SDS011;40710;51.120;13.136;2024-02-04T01:57:29;3.73;;;3.73;;
54328;SDS011;40710;51.120;13.136;2024-02-04T01:59:53;3.55;;;3.55;;
54328;SDS011;40710;51.120;13.136;2024-02-04T02:02:21;3.72;;;3.72;;
54328;SDS011;40710;51.120;13.136;2024-02-04T02:04:46;3.75;;;3.75;;
54328;SDS011;40710;51.120;13.136;2024-02-04T02:07:11;3.93;;;3.91;;
54328;SDS011;40710;51.120;13.136;2024-02-04T02:09:39;4.02;;;4.01;;
54328;SDS011;40710;51.120;13.136;2024-02-04T02:12:21;4.32;;;4.32;;
54328;SDS011;40710;51.120;13.136;2024-02-04T02:14:58;4.18;;;4.18;;
54328;SDS011;40710;51.120;13.136;2024-02-04T02:17:33;4.51;;;4.47;;
54328;SDS011;40710;51.120;13.136;2024-02-04T02:20:14;5.09;;;4.92;;
54328;SDS011;40710;51.120;13.136;2024-02-04T02:22:48;4.79;;;4.67;;
54328;SDS011;40710;51.120;13.136;2024-02-04T02:25:15;4.52;;;4.51;;
54328;SDS011;40710;51.120;13.136;2024-02-04T02:27:50;4.84;;;4.82;;
54328;SDS011;40710;51.120;13.136;2024-02-04T02:30:14;4.64;;;4.64;;
54328;SDS011;40710;51.120;13.136;2024-02-04T02:32:40;4.45;;;4.45;;
54328;SDS011;40710;51.120;13.136;2024-02-04T02:35:05;4.52;;;4.52;;
54328;SDS011;40710;51.120;13.136;2024-02-04T02:37:36;4.60;;;4.59;;
54328;SDS011;40710;51.120;13.136;2024-02-04T02:42:54;4.64;;;4.49;;
54328;SDS011;40710;51.120;13.136;2024-02-04T02:45:21;5.09;;;4.90;;
54328;SDS011;40710;51.120;13.136;2024-02-04T02:47:49;5.23;;;5.02;;
54328;SDS011;40710;51.120;13.136;2024-02-04T02:50:15;5.24;;;5.08;;
54328;SDS011;40710;51.120;13.136;2024-02-04T02:52:40;5.60;;;5.43;;
54328;SDS011;40710;51.120;13.136;2024-02-04T02:55:05;4.99;;;4.82;;
54328;SDS011;40710;51.120;13.136;2024-02-04T02:57:30;4.99;;;4.84;;
54328;SDS011;40710;51.120;13.136;2024-02-04T02:59:54;4.96;;;4.82;;
54328;SDS011;40710;51.120;13.136;2024-02-04T03:02:19;5.14;;;4.99;;
54328;SDS011;40710;51.120;13.136;2024-02-04T03:04:43;4.52;;;4.38;;
54328;SDS011;40710;51.120;13.136;2024-02-04T03:07:08;4.89;;;4.78;;
54328;SDS011;40710;51.120;13.136;2024-02-04T03:09:33;4.67;;;4.59;;
54328;SDS011;40710;51.120;13.136;2024-02-04T03:11:58;4.78;;;4.68;;
54328;SDS011;40710;51.120;13.136;2024-02-04T03:14:23;4.65;;;4.52;;
54328;SDS011;40710;51.120;13.136;2024-02-04T03:16:47;4.91;;;4.78;;
54328;SDS011;40710;51.120;13.136;2024-02-04T03:19:12;4.78;;;4.69;;
54328;SDS011;40710;51.120;13.136;2024-02-04T03:21:37;4.83;;;4.68;;
54328;SDS011;40710;51.120;13.136;2024-02-04T03:24:01;4.78;;;4.71;;
54328;SDS011;40710;51.120;13.136;2024-02-04T03:26:26;5.36;;;5.27;;
54328;SDS011;40710;51.120;13.136;2024-02-04T03:28:50;5.60;;;5.60;;
54328;SDS011;40710;51.120;13.136;2024-02-04T03:31:21;5.20;;;5.20;;
54328;SDS011;40710;51.120;13.136;2024-02-04T03:33:47;5.05;;;5.05;;
54328;SDS011;40710;51.120;13.136;2024-02-04T03:36:11;4.95;;;4.90;;
54328;SDS011;40710;51.120;13.136;2024-02-04T03:38:36;4.59;;;4.58;;
54328;SDS011;40710;51.120;13.136;2024-02-04T03:41:00;4.53;;;4.52;;
54328;SDS011;40710;51.120;13.136;2024-02-04T03:43:25;4.73;;;4.66;;
54328;SDS011;40710;51.120;13.136;2024-02-04T03:45:49;4.67;;;4.60;;
54328;SDS011;40710;51.120;13.136;2024-02-04T03:48:14;5.01;;;4.87;;
54328;SDS011;40710;51.120;13.136;2024-02-04T03:50:38;4.60;;;4.58;;
54328;SDS011;40710;51.120;13.136;2024-02-04T03:53:03;4.54;;;4.46;;
54328;SDS011;40710;51.120;13.136;2024-02-04T03:55:28;4.63;;;4.46;;
54328;SDS011;40710;51.120;13.136;2024-02-04T03:57:54;4.73;;;4.59;;
54328;SDS011;40710;51.120;13.136;2024-02-04T04:00:18;5.00;;;4.85;;
54328;SDS011;40710;51.120;13.136;2024-02-04T04:02:43;6.30;;;6.07;;
54328;SDS011;40710;51.120;13.136;2024-02-04T04:05:11;6.42;;;6.22;;
54328;SDS011;40710;51.120;13.136;2024-02-04T04:07:36;5.57;;;5.40;;
54328;SDS011;40710;51.120;13.136;2024-02-04T04:10:02;4.39;;;4.27;;
54328;SDS011;40710;51.120;13.136;2024-02-04T04:12:26;4.20;;;4.08;;
54328;SDS011;40710;51.120;13.136;2024-02-04T04:14:51;4.13;;;4.03;;
54328;SDS011;40710;51.120;13.136;2024-02-04T04:17:17;4.19;;;4.07;;
54328;SDS011;40710;51.120;13.136;2024-02-04T04:19:41;4.13;;;3.96;;
54328;SDS011;40710;51.120;13.136;2024-02-04T04:22:06;3.78;;;3.64;;
54328;SDS011;40710;51.120;13.136;2024-02-04T04:24:31;3.87;;;3.75;;
54328;SDS011;40710;51.120;13.136;2024-02-04T04:26:55;4.05;;;3.95;;
54328;SDS011;40710;51.120;13.136;2024-02-04T04:29:20;5.04;;;4.93;;
54328;SDS011;40710;51.120;13.136;2024-02-04T04:31:45;3.34;;;3.24;;
54328;SDS011;40710;51.120;13.136;2024-02-04T04:34:10;3.59;;;3.49;;
54328;SDS011;40710;51.120;13.136;2024-02-04T04:36:34;3.22;;;3.14;;
54328;SDS011;40710;51.120;13.136;2024-02-04T04:38:59;3.14;;;3.05;;
54328;SDS011;40710;51.120;13.136;2024-02-04T04:41:23;3.17;;;3.11;;
54328;SDS011;40710;51.120;13.136;2024-02-04T04:43:48;3.17;;;3.11;;
54328;SDS011;40710;51.120;13.136;2024-02-04T04:46:13;3.22;;;3.17;;
54328;SDS011;40710;51.120;13.136;2024-02-04T04:48:38;3.22;;;3.16;;
54328;SDS011;40710;51.120;13.136;2024-02-04T04:51:02;3.54;;;3.45;;
54328;SDS011;40710;51.120;13.136;2024-02-04T04:53:27;3.36;;;3.26;;
54328;SDS011;40710;51.120;13.136;2024-02-04T04:55:51;3.14;;;3.06;;
54328;SDS011;40710;51.120;13.136;2024-02-04T04:58:16;2.95;;;2.87;;
54328;SDS011;40710;51.120;13.136;2024-02-04T05:00:40;3.05;;;2.96;;
54328;SDS011;40710;51.120;13.136;2024-02-04T05:03:05;2.75;;;2.67;;
54328;SDS011;40710;51.120;13.136;2024-02-04T05:05:30;2.94;;;2.84;;
54328;SDS011;40710;51.120;13.136;2024-02-04T05:07:54;3.03;;;2.96;;
54328;SDS011;40710;51.120;13.136;2024-02-04T05:10:19;3.04;;;2.96;;
54328;SDS011;40710;51.120;13.136;2024-02-04T05:12:44;2.94;;;2.83;;
54328;SDS011;40710;51.120;13.136;2024-02-04T05:15:08;2.95;;;2.82;;
54328;SDS011;40710;51.120;13.136;2024-02-04T05:17:33;3.17;;;3.05;;
54328;SDS011;40710;51.120;13.136;2024-02-04T05:19:58;3.36;;;3.24;;
54328;SDS011;40710;51.120;13.136;2024-02-04T05:22:22;3.55;;;3.42;;
54328;SDS011;40710;51.120;13.136;2024-02-04T05:24:47;3.67;;;3.55;;
54328;SDS011;40710;51.120;13.136;2024-02-04T05:27:11;3.80;;;3.70;;
54328;SDS011;40710;51.120;13.136;2024-02-04T05:29:36;7.59;;;7.34;;
54328;SDS011;40710;51.120;13.136;2024-02-04T05:32:00;4.71;;;4.56;;
54328;SDS011;40710;51.120;13.136;2024-02-04T05:34:25;3.73;;;3.63;;
54328;SDS011;40710;51.120;13.136;2024-02-04T05:36:49;3.51;;;3.42;;
54328;SDS011;40710;51.120;13.136;2024-02-04T05:39:15;3.36;;;3.26;;
54328;SDS011;40710;51.120;13.136;2024-02-04T05:41:40;3.57;;;3.46;;
54328;SDS011;40710;51.120;13.136;2024-02-04T05:44:06;3.48;;;3.37;;
54328;SDS011;40710;51.120;13.136;2024-02-04T05:46:33;3.40;;;3.30;;
54328;SDS011;40710;51.120;13.136;2024-02-04T05:48:57;3.36;;;3.28;;
54328;SDS011;40710;51.120;13.136;2024-02-04T05:51:22;3.07;;;2.98;;
54328;SDS011;40710;51.120;13.136;2024-02-04T05:53:46;2.95;;;2.86;;
54328;SDS011;40710;51.120;13.136;2024-02-04T05:56:11;3.01;;;2.94;;
54328;SDS011;40710;51.120;13.136;2024-02-04T05:58:35;2.86;;;2.80;;
54328;SDS011;40710;51.120;13.136;2024-02-04T06:01:00;2.94;;;2.87;;
54328;SDS011;40710;51.120;13.136;2024-02-04T06:03:25;3.06;;;2.97;;
54328;SDS011;40710;51.120;13.136;2024-02-04T06:05:49;3.08;;;3.06;;
54328;SDS011;40710;51.120;13.136;2024-02-04T06:08:14;3.02;;;2.95;;
54328;SDS011;40710;51.120;13.136;2024-02-04T06:10:38;3.14;;;3.08;;
54328;SDS011;40710;51.120;13.136;2024-02-04T06:13:03;2.86;;;2.85;;
54328;SDS011;40710;51.120;13.136;2024-02-04T06:15:27;2.92;;;2.92;;
54328;SDS011;40710;51.120;13.136;2024-02-04T06:17:52;2.90;;;2.90;;
54328;SDS011;40710;51.120;13.136;2024-02-04T06:20:17;3.25;;;3.24;;
54328;SDS011;40710;51.120;13.136;2024-02-04T06:22:41;2.75;;;2.74;;
54328;SDS011;40710;51.120;13.136;2024-02-04T06:25:06;2.79;;;2.72;;
54328;SDS011;40710;51.120;13.136;2024-02-04T06:27:31;3.03;;;2.97;;
54328;SDS011;40710;51.120;13.136;2024-02-04T06:29:56;2.81;;;2.73;;
54328;SDS011;40710;51.120;13.136;2024-02-04T06:32:20;2.81;;;2.78;;
54328;SDS011;40710;51.120;13.136;2024-02-04T06:34:45;2.79;;;2.79;;
54328;SDS011;40710;51.120;13.136;2024-02-04T06:37:09;2.55;;;2.55;;
54328;SDS011;40710;51.120;13.136;2024-02-04T06:39:34;2.61;;;2.59;;
54328;SDS011;40710;51.120;13.136;2024-02-04T06:41:58;3.48;;;3.40;;
54328;SDS011;40710;51.120;13.136;2024-02-04T06:44:23;3.24;;;3.21;;
54328;SDS011;40710;51.120;13.136;2024-02-04T06:46:47;2.90;;;2.86;;
54328;SDS011;40710;51.120;13.136;2024-02-04T06:49:12;2.31;;;2.27;;
54328;SDS011;40710;51.120;13.136;2024-02-04T06:51:42;2.33;;;2.33;;
54328;SDS011;40710;51.120;13.136;2024-02-04T06:54:06;2.35;;;2.35;;
54328;SDS011;40710;51.120;13.136;2024-02-04T06:56:31;2.30;;;2.30;;
54328;SDS011;40710;51.120;13.136;2024-02-04T06:58:55;2.24;;;2.24;;
54328;SDS011;40710;51.120;13.136;2024-02-04T07:01:20;2.02;;;2.02;;
54328;SDS011;40710;51.120;13.136;2024-02-04T07:03:44;2.10;;;2.06;;
54328;SDS011;40710;51.120;13.136;2024-02-04T07:06:09;2.02;;;1.95;;
54328;SDS011;40710;51.120;13.136;2024-02-04T07:08:34;2.07;;;2.05;;
54328;SDS011;40710;51.120;13.136;2024-02-04T07:10:59;1.77;;;1.76;;
54328;SDS011;40710;51.120;13.136;2024-02-04T07:13:23;1.67;;;1.66;;
54328;SDS011;40710;51.120;13.136;2024-02-04T07:15:48;1.47;;;1.47;;
54328;SDS011;40710;51.120;13.136;2024-02-04T07:18:12;1.38;;;1.38;;
54328;SDS011;40710;51.120;13.136;2024-02-04T07:20:37;1.35;;;1.35;;
54328;SDS011;40710;51.120;13.136;2024-02-04T07:23:02;1.44;;;1.44;;
54328;SDS011;40710;51.120;13.136;2024-02-04T07:25:26;1.30;;;1.30;;
54328;SDS011;40710;51.120;13.136;2024-02-04T07:27:51;1.51;;;1.51;;
54328;SDS011;40710;51.120;13.136;2024-02-04T07:30:16;1.39;;;1.39;;
54328;SDS011;40710;51.120;13.136;2024-02-04T07:32:41;1.59;;;1.59;;
54328;SDS011;40710;51.120;13.136;2024-02-04T07:35:05;1.22;;;1.22;;
54328;SDS011;40710;51.120;13.136;2024-02-04T07:37:30;1.10;;;1.10;;
54328;SDS011;40710;51.120;13.136;2024-02-04T07:39:55;1.84;;;1.84;;
54328;SDS011;40710;51.120;13.136;2024-02-04T07:42:19;3.98;;;3.95;;
54328;SDS011;40710;51.120;13.136;2024-02-04T07:44:44;1.26;;;1.25;;
54328;SDS011;40710;51.120;13.136;2024-02-04T07:47:09;1.10;;;1.10;;
54328;SDS011;40710;51.120;13.136;2024-02-04T07:49:34;1.17;;;1.17;;
54328;SDS011;40710;51.120;13.136;2024-02-04T07:51:58;0.95;;;0.95;;
54328;SDS011;40710;51.120;13.136;2024-02-04T07:54:23;1.10;;;1.10;;
54328;SDS011;40710;51.120;13.136;2024-02-04T07:56:47;1.17;;;1.17;;
54328;SDS011;40710;51.120;13.136;2024-02-04T07:59:12;1.06;;;1.06;;
54328;SDS011;40710;51.120;13.136;2024-02-04T08:01:36;1.13;;;1.13;;
54328;SDS011;40710;51.120;13.136;2024-02-04T08:04:01;0.98;;;0.98;;
54328;SDS011;40710;51.120;13.136;2024-02-04T08:06:26;1.04;;;1.04;;
54328;SDS011;40710;51.120;13.136;2024-02-04T08:08:51;1.04;;;1.04;;
54328;SDS011;40710;51.120;13.136;2024-02-04T08:11:16;0.81;;;0.81;;
54328;SDS011;40710;51.120;13.136;2024-02-04T08:13:41;0.87;;;0.87;;
54328;SDS011;40710;51.120;13.136;2024-02-04T08:16:06;1.06;;;1.06;;
54328;SDS011;40710;51.120;13.136;2024-02-04T08:18:30;0.91;;;0.91;;
54328;SDS011;40710;51.120;13.136;2024-02-04T08:20:55;0.97;;;0.97;;
54328;SDS011;40710;51.120;13.136;2024-02-04T08:23:19;1.01;;;1.01;;
54328;SDS011;40710;51.120;13.136;2024-02-04T08:25:44;0.95;;;0.95;;
54328;SDS011;40710;51.120;13.136;2024-02-04T08:28:09;0.93;;;0.93;;
54328;SDS011;40710;51.120;13.136;2024-02-04T08:30:33;0.90;;;0.90;;
54328;SDS011;40710;51.120;13.136;2024-02-04T08:32:58;0.88;;;0.88;;
54328;SDS011;40710;51.120;13.136;2024-02-04T08:35:22;0.77;;;0.77;;
54328;SDS011;40710;51.120;13.136;2024-02-04T08:37:47;0.84;;;0.84;;
54328;SDS011;40710;51.120;13.136;2024-02-04T08:40:11;0.97;;;0.97;;
54328;SDS011;40710;51.120;13.136;2024-02-04T08:42:36;1.00;;;1.00;;
54328;SDS011;40710;51.120;13.136;2024-02-04T08:45:00;1.17;;;1.17;;
54328;SDS011;40710;51.120;13.136;2024-02-04T08:47:25;1.33;;;1.33;;
54328;SDS011;40710;51.120;13.136;2024-02-04T08:49:50;1.75;;;1.75;;
54328;SDS011;40710;51.120;13.136;2024-02-04T08:52:14;1.61;;;1.61;;
54328;SDS011;40710;51.120;13.136;2024-02-04T08:54:39;3.66;;;3.64;;
54328;SDS011;40710;51.120;13.136;2024-02-04T08:57:04;1.56;;;1.55;;
54328;SDS011;40710;51.120;13.136;2024-02-04T08:59:29;0.94;;;0.93;;
54328;SDS011;40710;51.120;13.136;2024-02-04T09:01:53;1.00;;;1.00;;
54328;SDS011;40710;51.120;13.136;2024-02-04T09:04:18;1.34;;;1.34;;
54328;SDS011;40710;51.120;13.136;2024-02-04T09:06:42;1.22;;;1.22;;
54328;SDS011;40710;51.120;13.136;2024-02-04T09:09:07;1.08;;;1.08;;
54328;SDS011;40710;51.120;13.136;2024-02-04T09:11:33;1.10;;;1.10;;
54328;SDS011;40710;51.120;13.136;2024-02-04T09:13:59;1.06;;;1.06;;
54328;SDS011;40710;51.120;13.136;2024-02-04T09:16:23;0.90;;;0.90;;
54328;SDS011;40710;51.120;13.136;2024-02-04T09:18:48;0.85;;;0.85;;
54328;SDS011;40710;51.120;13.136;2024-02-04T09:21:13;0.75;;;0.75;;
54328;SDS011;40710;51.120;13.136;2024-02-04T09:23:38;0.84;;;0.84;;
54328;SDS011;40710;51.120;13.136;2024-02-04T09:26:02;0.94;;;0.94;;
54328;SDS011;40710;51.120;13.136;2024-02-04T09:28:27;1.96;;;1.96;;
54328;SDS011;40710;51.120;13.136;2024-02-04T09:30:51;5.08;;;5.03;;
54328;SDS011;40710;51.120;13.136;2024-02-04T09:33:16;1.26;;;1.24;;
54328;SDS011;40710;51.120;13.136;2024-02-04T09:35:40;1.53;;;1.50;;
54328;SDS011;40710;51.120;13.136;2024-02-04T09:38:05;1.66;;;1.62;;
54328;SDS011;40710;51.120;13.136;2024-02-04T09:40:30;1.17;;;1.14;;
54328;SDS011;40710;51.120;13.136;2024-02-04T09:42:55;0.97;;;0.96;;
54328;SDS011;40710;51.120;13.136;2024-02-04T09:45:22;0.94;;;0.93;;
54328;SDS011;40710;51.120;13.136;2024-02-04T09:47:46;1.04;;;1.04;;
54328;SDS011;40710;51.120;13.136;2024-02-04T09:50:17;0.88;;;0.87;;
54328;SDS011;40710;51.120;13.136;2024-02-04T09:52:41;0.94;;;0.93;;
54328;SDS011;40710;51.120;13.136;2024-02-04T09:55:14;1.73;;;1.70;;
54328;SDS011;40710;51.120;13.136;2024-02-04T09:57:41;1.05;;;1.04;;
54328;SDS011;40710;51.120;13.136;2024-02-04T10:00:06;1.16;;;1.14;;
54328;SDS011;40710;51.120;13.136;2024-02-04T10:02:32;1.26;;;1.24;;
54328;SDS011;40710;51.120;13.136;2024-02-04T10:04:57;1.40;;;1.37;;
54328;SDS011;40710;51.120;13.136;2024-02-04T10:07:22;1.53;;;1.52;;
54328;SDS011;40710;51.120;13.136;2024-02-04T10:09:47;1.69;;;1.67;;
54328;SDS011;40710;51.120;13.136;2024-02-04T10:12:11;1.70;;;1.69;;
54328;SDS011;40710;51.120;13.136;2024-02-04T10:14:36;1.76;;;1.74;;
54328;SDS011;40710;51.120;13.136;2024-02-04T10:17:01;1.89;;;1.87;;
54328;SDS011;40710;51.120;13.136;2024-02-04T10:19:25;1.94;;;1.94;;
54328;SDS011;40710;51.120;13.136;2024-02-04T10:22:02;2.12;;;2.12;;
54328;SDS011;40710;51.120;13.136;2024-02-04T10:24:28;1.80;;;1.80;;
54328;SDS011;40710;51.120;13.136;2024-02-04T10:26:53;2.01;;;2.01;;
54328;SDS011;40710;51.120;13.136;2024-02-04T10:29:21;2.65;;;2.64;;
54328;SDS011;40710;51.120;13.136;2024-02-04T10:31:47;2.62;;;2.61;;
54328;SDS011;40710;51.120;13.136;2024-02-04T10:34:12;2.23;;;2.19;;
54328;SDS011;40710;51.120;13.136;2024-02-04T10:36:36;2.03;;;2.03;;
54328;SDS011;40710;51.120;13.136;2024-02-04T10:39:01;1.82;;;1.80;;
54328;SDS011;40710;51.120;13.136;2024-02-04T10:41:25;1.79;;;1.75;;
54328;SDS011;40710;51.120;13.136;2024-02-04T10:43:51;1.53;;;1.50;;
54328;SDS011;40710;51.120;13.136;2024-02-04T10:46:19;1.22;;;1.19;;
54328;SDS011;40710;51.120;13.136;2024-02-04T10:48:45;1.74;;;1.70;;
54328;SDS011;40710;51.120;13.136;2024-02-04T10:51:26;1.21;;;1.19;;
54328;SDS011;40710;51.120;13.136;2024-02-04T10:53:51;1.12;;;1.12;;
54328;SDS011;40710;51.120;13.136;2024-02-04T10:56:21;1.23;;;1.23;;
54328;SDS011;40710;51.120;13.136;2024-02-04T10:58:55;1.09;;;1.09;;
54328;SDS011;40710;51.120;13.136;2024-02-04T11:01:20;0.99;;;0.98;;
54328;SDS011;40710;51.120;13.136;2024-02-04T11:03:47;1.06;;;1.06;;
54328;SDS011;40710;51.120;13.136;2024-02-04T11:06:13;0.94;;;0.94;;
54328;SDS011;40710;51.120;13.136;2024-02-04T11:08:38;1.08;;;1.08;;
54328;SDS011;40710;51.120;13.136;2024-02-04T11:11:03;1.09;;;1.09;;
54328;SDS011;40710;51.120;13.136;2024-02-04T11:13:28;1.40;;;1.40;;
54328;SDS011;40710;51.120;13.136;2024-02-04T11:15:54;1.46;;;1.46;;
54328;SDS011;40710;51.120;13.136;2024-02-04T11:18:30;1.35;;;1.35;;
54328;SDS011;40710;51.120;13.136;2024-02-04T11:21:26;1.24;;;1.24;;
54328;SDS011;40710;51.120;13.136;2024-02-04T11:24:16;1.37;;;1.37;;
54328;SDS011;40710;51.120;13.136;2024-02-04T11:27:06;1.52;;;1.52;;
54328;SDS011;40710;51.120;13.136;2024-02-04T11:29:31;1.64;;;1.64;;
54328;SDS011;40710;51.120;13.136;2024-02-04T11:31:58;1.58;;;1.58;;
54328;SDS011;40710;51.120;13.136;2024-02-04T11:34:23;1.77;;;1.77;;
54328;SDS011;40710;51.120;13.136;2024-02-04T11:36:48;1.69;;;1.69;;
54328;SDS011;40710;51.120;13.136;2024-02-04T11:39:13;1.69;;;1.69;;
54328;SDS011;40710;51.120;13.136;2024-02-04T11:41:44;1.72;;;1.72;;
54328;SDS011;40710;51.120;13.136;2024-02-04T11:44:19;1.91;;;1.91;;
54328;SDS011;40710;51.120;13.136;2024-02-04T11:46:45;2.01;;;2.01;;
54328;SDS011;40710;51.120;13.136;2024-02-04T11:49:14;3.01;;;3.00;;
54328;SDS011;40710;51.120;13.136;2024-02-04T11:51:41;2.96;;;2.95;;
54328;SDS011;40710;51.120;13.136;2024-02-04T11:54:05;2.56;;;2.56;;
54328;SDS011;40710;51.120;13.136;2024-02-04T11:56:31;2.31;;;2.31;;
54328;SDS011;40710;51.120;13.136;2024-02-04T11:58:57;2.69;;;2.69;;
54328;SDS011;40710;51.120;13.136;2024-02-04T12:01:23;2.53;;;2.53;;
54328;SDS011;40710;51.120;13.136;2024-02-04T12:03:48;2.74;;;2.74;;
54328;SDS011;40710;51.120;13.136;2024-02-04T12:06:13;2.71;;;2.71;;
54328;SDS011;40710;51.120;13.136;2024-02-04T12:08:41;2.80;;;2.80;;
54328;SDS011;40710;51.120;13.136;2024-02-04T12:11:06;2.95;;;2.94;;
54328;SDS011;40710;51.120;13.136;2024-02-04T12:13:31;2.92;;;2.90;;
54328;SDS011;40710;51.120;13.136;2024-02-04T12:15:58;3.13;;;3.13;;
54328;SDS011;40710;51.120;13.136;2024-02-04T12:18:23;2.92;;;2.92;;
54328;SDS011;40710;51.120;13.136;2024-02-04T12:20:48;2.87;;;2.87;;
54328;SDS011;40710;51.120;13.136;2024-02-04T12:23:15;2.58;;;2.58;;
54328;SDS011;40710;51.120;13.136;2024-02-04T12:25:41;2.57;;;2.57;;
54328;SDS011;40710;51.120;13.136;2024-02-04T12:28:06;2.55;;;2.55;;
54328;SDS011;40710;51.120;13.136;2024-02-04T12:30:31;2.54;;;2.54;;
54328;SDS011;40710;51.120;13.136;2024-02-04T12:33:00;2.51;;;2.51;;
54328;SDS011;40710;51.120;13.136;2024-02-04T12:35:28;2.62;;;2.62;;
54328;SDS011;40710;51.120;13.136;2024-02-04T12:37:52;2.49;;;2.49;;
54328;SDS011;40710;51.120;13.136;2024-02-04T12:40:24;2.59;;;2.59;;
54328;SDS011;40710;51.120;13.136;2024-02-04T12:42:59;2.86;;;2.86;;
54328;SDS011;40710;51.120;13.136;2024-02-04T12:45:29;2.93;;;2.92;;
54328;SDS011;40710;51.120;13.136;2024-02-04T12:47:54;2.25;;;2.25;;
54328;SDS011;40710;51.120;13.136;2024-02-04T12:50:21;2.11;;;2.10;;
54328;SDS011;40710;51.120;13.136;2024-02-04T12:52:46;1.99;;;1.96;;
54328;SDS011;40710;51.120;13.136;2024-02-04T12:55:24;2.88;;;2.80;;
54328;SDS011;40710;51.120;13.136;2024-02-04T12:58:00;3.24;;;3.15;;
54328;SDS011;40710;51.120;13.136;2024-02-04T13:00:29;4.60;;;4.49;;
54328;SDS011;40710;51.120;13.136;2024-02-04T13:02:54;3.28;;;3.26;;
54328;SDS011;40710;51.120;13.136;2024-02-04T13:05:22;1.90;;;1.90;;
54328;SDS011;40710;51.120;13.136;2024-02-04T13:07:51;1.81;;;1.80;;
54328;SDS011;40710;51.120;13.136;2024-02-04T13:10:21;1.78;;;1.78;;
54328;SDS011;40710;51.120;13.136;2024-02-04T13:12:46;1.86;;;1.86;;
54328;SDS011;40710;51.120;13.136;2024-02-04T13:15:22;1.98;;;1.98;;
54328;SDS011;40710;51.120;13.136;2024-02-04T13:17:46;2.01;;;2.01;;
54328;SDS011;40710;51.120;13.136;2024-02-04T13:20:11;1.87;;;1.87;;
54328;SDS011;40710;51.120;13.136;2024-02-04T13:22:36;2.01;;;2.01;;
54328;SDS011;40710;51.120;13.136;2024-02-04T13:25:00;1.94;;;1.94;;
54328;SDS011;40710;51.120;13.136;2024-02-04T13:27:25;1.84;;;1.84;;
54328;SDS011;40710;51.120;13.136;2024-02-04T13:29:50;2.03;;;2.03;;
54328;SDS011;40710;51.120;13.136;2024-02-04T13:32:14;2.11;;;2.11;;
54328;SDS011;40710;51.120;13.136;2024-02-04T13:34:39;1.96;;;1.96;;
54328;SDS011;40710;51.120;13.136;2024-02-04T13:37:03;1.90;;;1.90;;
54328;SDS011;40710;51.120;13.136;2024-02-04T13:39:28;3.91;;;3.90;;
54328;SDS011;40710;51.120;13.136;2024-02-04T13:41:52;4.04;;;3.98;;
54328;SDS011;40710;51.120;13.136;2024-02-04T13:44:17;2.12;;;2.09;;
54328;SDS011;40710;51.120;13.136;2024-02-04T13:46:41;2.49;;;2.49;;
54328;SDS011;40710;51.120;13.136;2024-02-04T13:49:07;2.58;;;2.58;;
54328;SDS011;40710;51.120;13.136;2024-02-04T13:51:32;2.67;;;2.67;;
54328;SDS011;40710;51.120;13.136;2024-02-04T13:53:56;3.05;;;3.05;;
54328;SDS011;40710;51.120;13.136;2024-02-04T13:56:21;2.66;;;2.66;;
54328;SDS011;40710;51.120;13.136;2024-02-04T13:58:45;2.94;;;2.94;;
54328;SDS011;40710;51.120;13.136;2024-02-04T14:01:10;3.06;;;3.06;;
54328;SDS011;40710;51.120;13.136;2024-02-04T14:03:34;3.28;;;3.28;;
54328;SDS011;40710;51.120;13.136;2024-02-04T14:05:59;3.45;;;3.43;;
54328;SDS011;40710;51.120;13.136;2024-02-04T14:08:27;3.38;;;3.38;;
54328;SDS011;40710;51.120;13.136;2024-02-04T14:10:52;3.54;;;3.54;;
54328;SDS011;40710;51.120;13.136;2024-02-04T14:13:16;3.15;;;3.15;;
54328;SDS011;40710;51.120;13.136;2024-02-04T14:15:41;3.23;;;3.23;;
54328;SDS011;40710;51.120;13.136;2024-02-04T14:18:06;3.07;;;3.07;;
54328;SDS011;40710;51.120;13.136;2024-02-04T14:20:30;4.17;;;4.16;;
54328;SDS011;40710;51.120;13.136;2024-02-04T14:22:55;2.87;;;2.82;;
54328;SDS011;40710;51.120;13.136;2024-02-04T14:25:20;2.38;;;2.34;;
54328;SDS011;40710;51.120;13.136;2024-02-04T19:21:45;6.36;;;6.36;;